Valdosta, GA

12:27 AM EST on March 01, 2015 (GMT -0500)
Valdosta Regional | Change Station
CLOSE
Current Station
Airport
Location: Valdosta Regional,
Elevation: 203 ft
Nearby Weather Stations

Elev 203 ft 30.78 °N, 83.27 °W | Updated 34 minutes ago

Overcast
Overcast
45 °F
Feels Like 41 °F
N
8
Wind Variable Wind from NE

Today
High -- | Low -- °F
--% Chance of Precip.
Yesterday
High -- | Low -- °F
Precip. -- in
6:59 AM 6:31 PM
Waxing Gibbous, 82% visible
Pressure 30.51 in
Visibility 9.0 miles
Clouds Overcast 800 ft
Windchill 41 °F
Dew Point 43 °F
Humidity 93%
Rainfall 0.19 in
Snow Depth Not available.
UV 0 out of 12
Pollen 7.80 out of 12
Air Quality Not available.
Flu Activity Not available.
METAR KVLD 010453Z AUTO 05007KT 9SM OVC008 07/06 A3048 RMK AO2 CIG 006V010 SLP329 T00720061 400890067 TSNO

More Conditions Fewer Conditions

Pressure 30.51 in
Visibility 9.0 miles
Clouds Overcast 800 ft
Windchill 41 °F
Dew Point 43 °F
Humidity 93%
Rainfall 0.19 in
Snow Depth Not available.
UV 0 out of 12
Pollen 7.80 out of 12
Air Quality Not available.
Flu Activity Not available.
METAR KVLD 010453Z AUTO 05007KT 9SM OVC008 07/06 A3048 RMK AO2 CIG 006V010 SLP329 T00720061 400890067 TSNO

More Conditions Fewer Conditions

10-Day Weather Forecast

Almanac

Astronomy

Mar. 01, 2015 Rise Set
Actual Time
Civil Twilight
Nautical Twilight
Astronomical Twilight
Moon
Length of Visible Light
Length of Day
Tomorrow will be .
, % of the Moon is Illuminated

Today's Extremes

State Highs State Lows

Community

WunderPhotos

Upload Photos

1,801,335 photos uploaded!

WunderBlogs® & News

Nearby

Air Quality

  Air Quality AQ Index Pollutant
Not available.

Snow Depth

Station Depth Elevation

Earthquake Activity

City Distance Mag. Time & Date
Minimum magnitude displayed is 2.5.

Coastal Water Temperatures

Place Temperature

Nearby Weather Stations